createdAt,value
2023-04-15T00:00:15.757Z,7.80
2023-04-15T00:03:19.895Z,9.87
2023-04-15T00:06:23.090Z,5.60
2023-04-15T00:09:25.813Z,10.48
2023-04-15T00:12:28.866Z,8.20
2023-04-15T00:15:31.673Z,5.00
2023-04-15T00:18:36.353Z,6.40
2023-04-15T00:21:38.874Z,7.27
2023-04-15T00:24:41.909Z,6.87
2023-04-15T00:27:44.447Z,6.85
2023-04-15T00:30:47.271Z,6.83
2023-04-15T00:33:51.671Z,7.70
2023-04-15T00:36:54.434Z,9.83
2023-04-15T00:39:57.176Z,7.60
2023-04-15T00:42:59.689Z,6.23
2023-04-15T00:46:03.795Z,7.67
2023-04-15T00:49:08.356Z,5.30
2023-04-15T00:52:10.874Z,7.63
2023-04-15T00:55:14.019Z,4.63
2023-04-15T00:58:17.045Z,9.90
2023-04-15T01:01:26.127Z,6.00
2023-04-15T01:04:31.240Z,6.40
2023-04-15T01:07:33.875Z,4.27
2023-04-15T01:10:43.138Z,7.10
2023-04-15T01:13:45.713Z,9.57
2023-04-15T01:16:48.434Z,5.87
2023-04-15T01:19:52.505Z,10.57
2023-04-15T01:22:55.897Z,4.70
2023-04-15T01:26:00.067Z,6.50
2023-04-15T01:29:02.867Z,7.33
2023-04-15T01:32:05.798Z,6.03
2023-04-15T01:35:08.782Z,7.15
2023-04-15T01:38:12.694Z,7.32
2023-04-15T01:44:19.154Z,6.50
2023-04-15T01:47:21.813Z,9.63
2023-04-15T01:50:26.081Z,7.47
2023-04-15T01:53:29.388Z,6.57
2023-04-15T01:56:33.511Z,5.63
2023-04-15T01:59:36.204Z,8.40
2023-04-15T02:02:38.924Z,8.63
2023-04-15T02:05:41.604Z,7.23
2023-04-15T02:08:44.189Z,10.40
2023-04-15T02:11:48.206Z,14.40
2023-04-15T02:17:55.334Z,10.13
2023-04-15T02:20:58.697Z,4.87
2023-04-15T02:24:02.276Z,4.68
2023-04-15T02:27:06.317Z,4.38
2023-04-15T02:30:09.505Z,5.13
2023-04-15T02:33:12.174Z,6.68
2023-04-15T02:36:14.777Z,10.70
2023-04-15T02:39:18.597Z,6.67
2023-04-15T02:45:27.496Z,6.53
2023-04-15T02:48:30.083Z,4.57
2023-04-15T02:51:32.768Z,7.73
2023-04-15T02:54:35.335Z,8.43
2023-04-15T02:57:40.673Z,9.57
2023-04-15T03:00:43.440Z,5.53
2023-04-15T03:03:46.144Z,6.07
2023-04-15T03:06:48.770Z,7.67
2023-04-15T03:09:51.633Z,8.83
2023-04-15T03:12:55.660Z,7.13
2023-04-15T03:15:58.405Z,7.60
2023-04-15T03:19:01.374Z,6.53
2023-04-15T03:22:04.133Z,7.57
2023-04-15T03:25:07.656Z,6.13
2023-04-15T03:28:11.578Z,7.65
2023-04-15T03:31:14.304Z,11.53
2023-04-15T03:34:16.869Z,6.47
2023-04-15T03:37:19.432Z,7.87
2023-04-15T03:40:22.655Z,8.23
2023-04-15T03:43:26.501Z,5.53
2023-04-15T03:49:31.421Z,7.47
2023-04-15T03:52:34.153Z,10.77
2023-04-15T03:55:36.998Z,9.20
2023-04-15T03:58:40.881Z,5.97
2023-04-15T04:04:46.057Z,9.27
2023-04-15T04:10:52.134Z,3.53
2023-04-15T04:13:55.932Z,6.27
2023-04-15T04:20:00.856Z,8.77
2023-04-15T04:23:03.393Z,4.30
2023-04-15T04:26:06.154Z,10.43
2023-04-15T04:29:10.130Z,6.40
2023-04-15T04:32:12.755Z,5.97
2023-04-15T04:35:15.747Z,9.30
2023-04-15T04:38:18.373Z,8.90
2023-04-15T04:41:21.231Z,12.30
2023-04-15T04:44:25.198Z,7.25
2023-04-15T04:47:27.726Z,4.87
2023-04-15T04:50:31.078Z,10.83
2023-04-15T04:53:33.658Z,9.77
2023-04-15T04:56:36.373Z,12.07
2023-04-15T04:59:40.278Z,7.37
2023-04-15T05:05:46.896Z,8.13
2023-04-15T05:08:49.868Z,6.30
2023-04-15T05:11:52.411Z,10.00
2023-04-15T05:14:56.323Z,7.00
2023-04-15T05:21:01.437Z,28.83
2023-04-15T05:24:04.496Z,19.00
2023-04-15T05:27:08.603Z,13.20
2023-04-15T05:30:13.835Z,14.37
2023-04-15T05:33:16.401Z,11.33
2023-04-15T05:36:18.928Z,7.10
2023-04-15T05:39:22.038Z,7.17
2023-04-15T05:42:24.661Z,5.32
2023-04-15T05:45:28.752Z,7.20
2023-04-15T05:48:31.318Z,10.70
2023-04-15T05:51:33.896Z,9.30
2023-04-15T05:54:36.523Z,12.00
2023-04-15T05:57:39.201Z,7.57
2023-04-15T06:00:43.873Z,10.17
2023-04-15T06:03:46.655Z,7.17
2023-04-15T06:06:49.538Z,8.20
2023-04-15T06:09:52.185Z,6.60
2023-04-15T06:12:54.959Z,10.87
2023-04-15T06:15:59.000Z,7.90
2023-04-15T06:19:01.827Z,6.07
2023-04-15T06:22:06.905Z,9.45
2023-04-15T06:25:10.247Z,9.53
2023-04-15T06:28:13.009Z,11.30
2023-04-15T06:31:16.955Z,10.93
2023-04-15T06:34:19.476Z,7.97
2023-04-15T06:37:22.126Z,9.87
2023-04-15T06:40:24.654Z,7.63
2023-04-15T06:43:27.196Z,6.97
2023-04-15T06:46:31.081Z,9.77
2023-04-15T06:49:34.028Z,10.30
2023-04-15T06:52:36.586Z,6.60
2023-04-15T06:55:40.209Z,7.50
2023-04-15T07:01:46.645Z,8.57
2023-04-15T07:04:49.222Z,7.67
2023-04-15T07:07:51.798Z,10.00
2023-04-15T07:10:54.373Z,11.00
2023-04-15T07:13:56.836Z,7.83
2023-04-15T07:17:00.881Z,5.00
2023-04-15T07:20:04.908Z,13.80
2023-04-15T07:23:07.992Z,11.27
2023-04-15T07:26:11.084Z,5.88
2023-04-15T07:29:13.804Z,6.65
2023-04-15T07:32:17.680Z,8.60
2023-04-15T07:35:21.447Z,6.23
2023-04-15T07:38:24.586Z,11.07
2023-04-15T07:41:27.534Z,6.55
2023-04-15T07:44:30.436Z,7.35
2023-04-15T07:47:34.320Z,11.15
2023-04-15T07:50:38.069Z,6.97
2023-04-15T07:56:43.042Z,7.40
2023-04-15T07:59:45.773Z,10.47
2023-04-15T08:02:50.031Z,6.80
2023-04-15T08:05:52.852Z,7.40
2023-04-15T08:08:55.612Z,6.03
2023-04-15T08:11:58.302Z,10.32
2023-04-15T08:15:01.984Z,6.50
2023-04-15T08:18:05.850Z,6.77
2023-04-15T08:21:08.446Z,5.27
2023-04-15T08:24:11.524Z,5.17
2023-04-15T08:27:14.163Z,8.80
2023-04-15T08:30:16.743Z,7.40
2023-04-15T08:33:20.679Z,6.13
2023-04-15T08:36:23.254Z,7.37
2023-04-15T08:39:26.076Z,10.77
2023-04-15T08:42:32.767Z,7.90
2023-04-15T08:45:35.635Z,6.07
2023-04-15T08:48:40.531Z,6.15
2023-04-15T08:51:43.429Z,8.50
2023-04-15T08:54:45.975Z,10.40
2023-04-15T08:57:48.652Z,10.80
2023-04-15T09:00:51.630Z,6.20
2023-04-15T09:03:56.410Z,6.53
2023-04-15T09:06:59.117Z,7.83
2023-04-15T09:10:01.723Z,10.48
2023-04-15T09:13:04.560Z,7.78
2023-04-15T09:16:08.442Z,5.63
2023-04-15T09:19:25.793Z,7.67
2023-04-15T09:22:33.245Z,8.07
2023-04-15T09:25:36.020Z,5.10
2023-04-15T09:28:43.507Z,5.35
2023-04-15T09:31:46.438Z,4.20
2023-04-15T09:34:50.726Z,5.20
2023-04-15T09:37:53.726Z,5.50
2023-04-15T09:40:57.198Z,3.17
2023-04-15T09:47:02.801Z,7.43
2023-04-15T09:50:07.597Z,7.30
2023-04-15T09:53:10.970Z,4.43
2023-04-15T09:56:13.467Z,4.85
2023-04-15T09:59:16.424Z,7.30
2023-04-15T10:02:20.922Z,6.47
2023-04-15T10:05:25.721Z,4.70
2023-04-15T10:08:29.955Z,4.87
2023-04-15T10:11:33.006Z,3.10
2023-04-15T10:14:38.385Z,4.53
2023-04-15T10:17:45.051Z,4.60
2023-04-15T10:20:49.346Z,3.70
2023-04-15T10:23:52.778Z,2.97
2023-04-15T10:26:55.639Z,8.73
2023-04-15T10:29:58.297Z,6.18
2023-04-15T10:33:01.327Z,4.68
2023-04-15T10:36:06.449Z,12.00
2023-04-15T10:39:40.113Z,4.73
2023-04-15T10:42:42.621Z,5.70
2023-04-15T10:45:46.157Z,3.97
2023-04-15T10:48:50.268Z,5.50
2023-04-15T10:51:55.345Z,4.13
2023-04-15T10:55:05.037Z,3.57
2023-04-15T10:58:07.701Z,4.00
2023-04-15T11:01:10.268Z,3.72
2023-04-15T11:04:13.004Z,2.67
2023-04-15T11:07:17.303Z,4.35
2023-04-15T11:10:56.621Z,3.60
2023-04-15T11:13:59.374Z,5.30
2023-04-15T11:17:01.980Z,4.38
2023-04-15T11:20:06.195Z,6.13
2023-04-15T11:23:15.237Z,6.50
2023-04-15T11:26:18.319Z,5.73
2023-04-15T11:29:21.279Z,7.90
2023-04-15T11:32:23.959Z,3.28
2023-04-15T11:35:26.739Z,1.60
2023-04-15T11:38:31.303Z,5.82
2023-04-15T11:41:33.961Z,4.30
2023-04-15T11:44:36.477Z,5.43
2023-04-15T11:47:39.650Z,4.90
2023-04-15T11:50:42.194Z,4.82
2023-04-15T11:53:47.203Z,3.10
2023-04-15T11:56:52.444Z,7.87
2023-04-15T11:59:56.265Z,4.93
2023-04-15T12:03:13.316Z,7.80
2023-04-15T12:06:18.938Z,6.40
2023-04-15T12:09:23.150Z,3.03
2023-04-15T12:12:28.403Z,8.63
2023-04-15T12:15:31.522Z,7.33
2023-04-15T12:18:34.131Z,6.60
2023-04-15T12:21:38.538Z,3.88
2023-04-15T12:24:43.886Z,7.43
2023-04-15T12:27:53.308Z,4.30
2023-04-15T12:30:55.985Z,4.97
2023-04-15T12:33:59.029Z,7.15
2023-04-15T12:37:03.019Z,4.20
2023-04-15T12:40:09.632Z,7.10
2023-04-15T12:43:12.708Z,6.57
2023-04-15T12:46:15.519Z,4.85
2023-04-15T12:49:20.613Z,5.05
2023-04-15T12:52:24.426Z,5.70
2023-04-15T12:55:28.387Z,4.97
2023-04-15T12:58:30.955Z,6.80
2023-04-15T13:01:33.545Z,4.60
2023-04-15T13:04:36.107Z,5.47
2023-04-15T13:07:38.985Z,3.80
2023-04-15T13:10:43.600Z,2.83
2023-04-15T13:13:46.121Z,4.23
2023-04-15T13:16:48.704Z,6.53
2023-04-15T13:19:51.317Z,4.97
2023-04-15T13:22:54.098Z,2.67
2023-04-15T13:25:58.160Z,2.72
2023-04-15T13:29:01.903Z,3.40
2023-04-15T13:32:04.594Z,3.27
2023-04-15T13:35:07.535Z,3.60
2023-04-15T13:38:10.428Z,2.30
2023-04-15T13:41:14.241Z,3.15
2023-04-15T13:44:16.860Z,3.50
2023-04-15T13:47:20.327Z,2.47
2023-04-15T13:53:37.832Z,2.57
2023-04-15T13:56:43.283Z,2.13
2023-04-15T13:59:46.011Z,1.87
2023-04-15T14:02:48.910Z,0.93
2023-04-15T14:05:55.820Z,3.17
2023-04-15T14:08:58.586Z,3.00
2023-04-15T14:12:02.673Z,1.33
2023-04-15T14:15:06.364Z,3.77
2023-04-15T14:18:08.924Z,1.00
2023-04-15T14:21:11.468Z,2.50
2023-04-15T14:24:14.266Z,4.00
2023-04-15T14:27:18.359Z,6.88
2023-04-15T14:30:21.211Z,4.07
2023-04-15T14:33:24.041Z,1.40
2023-04-15T14:36:27.133Z,1.80
2023-04-15T14:39:29.880Z,1.83
2023-04-15T14:42:33.916Z,3.40
2023-04-15T14:45:36.420Z,2.20
2023-04-15T14:48:38.953Z,1.17
2023-04-15T14:51:42.006Z,1.77
2023-04-15T14:54:44.500Z,1.95
2023-04-15T14:57:48.970Z,3.07
2023-04-15T15:00:51.622Z,0.90
2023-04-15T15:03:54.328Z,4.03
2023-04-15T15:06:56.936Z,2.28
2023-04-15T15:09:59.495Z,1.47
2023-04-15T15:13:03.524Z,2.33
2023-04-15T15:16:06.763Z,1.90
2023-04-15T15:19:09.587Z,4.53
2023-04-15T15:22:12.357Z,1.75
2023-04-15T15:25:14.953Z,1.40
2023-04-15T15:28:18.818Z,2.23
2023-04-15T15:31:21.506Z,1.33
2023-04-15T15:34:24.084Z,2.25
2023-04-15T15:37:26.611Z,2.23
2023-04-15T15:40:29.422Z,1.73
2023-04-15T15:43:33.439Z,2.83
2023-04-15T15:46:36.165Z,3.00
2023-04-15T15:49:38.821Z,8.40
2023-04-15T15:52:41.456Z,2.27
2023-04-15T15:55:44.029Z,3.65
2023-04-15T15:58:47.867Z,1.10
2023-04-15T16:01:50.607Z,4.20
2023-04-15T16:04:53.325Z,3.53
2023-04-15T16:07:55.982Z,3.57
2023-04-15T16:10:58.511Z,1.90
2023-04-15T16:14:02.496Z,1.23
2023-04-15T16:17:05.070Z,2.00
2023-04-15T16:20:08.657Z,4.00
2023-04-15T16:26:15.743Z,1.77
2023-04-15T16:29:19.798Z,4.37
2023-04-15T16:32:22.573Z,2.97
2023-04-15T16:35:25.331Z,5.88
2023-04-15T16:38:27.952Z,3.97
2023-04-15T16:41:31.747Z,3.43
2023-04-15T16:44:37.218Z,2.17
2023-04-15T16:47:39.973Z,2.40
2023-04-15T16:50:42.520Z,4.57
2023-04-15T16:53:45.143Z,5.47
2023-04-15T16:56:47.773Z,2.37
2023-04-15T16:59:52.207Z,2.67
2023-04-15T17:02:56.211Z,4.73
2023-04-15T17:05:58.999Z,2.93
2023-04-15T17:09:01.610Z,2.80
2023-04-15T17:12:05.943Z,2.63
2023-04-15T17:15:10.987Z,2.77
2023-04-15T17:18:13.558Z,3.83
2023-04-15T17:21:17.365Z,4.13
2023-04-15T17:24:19.915Z,3.63
2023-04-15T17:27:22.548Z,2.90
2023-04-15T17:30:26.982Z,7.10
2023-04-15T17:34:00.310Z,4.57
2023-04-15T17:36:53.626Z,6.67
2023-04-15T17:39:56.369Z,5.10
2023-04-15T17:42:59.068Z,3.55
2023-04-15T17:46:02.950Z,2.73
2023-04-15T17:49:06.631Z,4.50
2023-04-15T17:52:09.478Z,3.27
2023-04-15T17:55:12.003Z,6.57
2023-04-15T17:58:14.563Z,2.90
2023-04-15T18:01:18.740Z,2.73
2023-04-15T18:04:22.744Z,5.17
2023-04-15T18:07:26.679Z,3.40
2023-04-15T18:10:29.230Z,4.30
2023-04-15T18:13:31.798Z,2.90
2023-04-15T18:16:35.746Z,1.93
2023-04-15T18:19:38.266Z,3.20
2023-04-15T18:22:40.847Z,1.73
2023-04-15T18:25:44.756Z,2.27
2023-04-15T18:28:47.300Z,2.37
2023-04-15T18:31:51.243Z,2.60
2023-04-15T18:34:55.421Z,5.03
2023-04-15T18:37:58.164Z,2.57
2023-04-15T18:41:00.804Z,3.73
2023-04-15T18:44:03.422Z,4.13
2023-04-15T18:47:07.369Z,2.20
2023-04-15T18:50:10.595Z,3.73
2023-04-15T18:53:13.403Z,2.10
2023-04-15T18:56:16.060Z,2.22
2023-04-15T18:59:29.802Z,3.30
2023-04-15T19:02:34.633Z,2.63
2023-04-15T19:05:37.895Z,2.43
2023-04-15T19:08:40.622Z,3.30
2023-04-15T19:11:43.650Z,5.07
2023-04-15T19:14:46.228Z,3.00
2023-04-15T19:17:50.177Z,3.40
2023-04-15T19:20:52.769Z,4.80
2023-04-15T19:23:56.796Z,3.73
2023-04-15T19:26:59.346Z,4.93
2023-04-15T19:30:03.337Z,3.50
2023-04-15T19:33:07.372Z,5.00
2023-04-15T19:36:09.988Z,5.13
2023-04-15T19:39:13.596Z,6.33
2023-04-15T19:42:17.066Z,5.27
2023-04-15T19:45:19.849Z,7.30
2023-04-15T19:48:24.124Z,6.72
2023-04-15T19:51:30.406Z,7.33
2023-04-15T19:54:33.286Z,6.60
2023-04-15T19:57:35.944Z,6.43
2023-04-15T20:00:38.952Z,6.53
2023-04-15T20:03:43.662Z,4.78
2023-04-15T20:06:46.328Z,7.53
2023-04-15T20:09:49.138Z,5.83
2023-04-15T20:12:53.498Z,5.40
2023-04-15T20:15:56.124Z,7.93
2023-04-15T20:19:04.041Z,7.10
2023-04-15T20:22:06.733Z,8.33
2023-04-15T20:25:09.771Z,7.13
2023-04-15T20:28:12.480Z,7.30
2023-04-15T20:31:15.006Z,5.53
2023-04-15T20:34:18.836Z,8.57
2023-04-15T20:37:21.339Z,7.43
2023-04-15T20:40:23.923Z,6.40
2023-04-15T20:43:26.604Z,10.43
2023-04-15T20:46:29.228Z,10.60
2023-04-15T20:49:35.748Z,8.73
2023-04-15T20:52:39.429Z,8.73
2023-04-15T20:58:46.175Z,9.30
2023-04-15T21:01:48.920Z,8.60
2023-04-15T21:04:52.869Z,7.93
2023-04-15T21:07:55.497Z,8.90
2023-04-15T21:10:58.284Z,7.57
2023-04-15T21:14:00.928Z,7.97
2023-04-15T21:17:08.462Z,7.47
2023-04-15T21:20:14.362Z,8.33
2023-04-15T21:23:16.882Z,8.90
2023-04-15T21:26:19.351Z,9.23
2023-04-15T21:29:21.887Z,10.77
2023-04-15T21:32:24.442Z,9.90
2023-04-15T21:35:30.412Z,7.73
2023-04-15T21:38:33.515Z,10.37
2023-04-15T21:41:37.705Z,7.53
2023-04-15T21:44:40.327Z,6.13
2023-04-15T21:48:04.496Z,12.07
2023-04-15T21:51:07.248Z,10.57
2023-04-15T21:54:09.750Z,9.70
2023-04-15T21:57:12.351Z,10.17
2023-04-15T22:00:15.673Z,14.27
2023-04-15T22:03:18.381Z,12.10
2023-04-15T22:06:22.340Z,8.57
2023-04-15T22:09:24.832Z,12.27
2023-04-15T22:12:27.375Z,12.60
2023-04-15T22:15:30.034Z,16.43
2023-04-15T22:18:32.528Z,11.43
2023-04-15T22:21:36.370Z,13.40
2023-04-15T22:24:40.749Z,12.20
2023-04-15T22:27:43.452Z,11.43
2023-04-15T22:30:46.005Z,13.67
2023-04-15T22:33:48.501Z,13.83
2023-04-15T22:36:53.183Z,9.57
2023-04-15T22:39:55.893Z,9.77
2023-04-15T22:42:58.447Z,9.70
2023-04-15T22:46:01.150Z,15.10
2023-04-15T22:49:03.957Z,14.10
2023-04-15T22:52:10.447Z,13.60
2023-04-15T22:55:15.495Z,13.30
2023-04-15T22:58:18.392Z,15.80
2023-04-15T23:01:21.117Z,11.20
2023-04-15T23:04:27.963Z,14.17
2023-04-15T23:07:32.247Z,12.97
2023-04-15T23:10:34.794Z,12.87
2023-04-15T23:13:37.288Z,14.90
2023-04-15T23:16:39.775Z,12.30
2023-04-15T23:19:42.219Z,10.23
2023-04-15T23:22:46.272Z,11.87
2023-04-15T23:25:49.166Z,8.40
2023-04-15T23:28:51.698Z,15.40
2023-04-15T23:31:54.465Z,11.50
2023-04-15T23:34:57.103Z,12.90
2023-04-15T23:38:00.921Z,13.93
2023-04-15T23:41:03.397Z,15.30
2023-04-15T23:44:06.325Z,11.97
2023-04-15T23:47:09.068Z,15.27
2023-04-15T23:50:12.066Z,14.15
2023-04-15T23:53:15.961Z,14.48
2023-04-15T23:56:18.548Z,9.23
2023-04-15T23:59:21.042Z,14.87
